Pagrindinis puslapis
METAR-TAF:

METAR-TAF

Oro uostai :

Vientianas, Laosas

platuma: 17-57N, ilguma: 102-34E, Aukštis: 171 m

Dabartinis oras

Ataskaita buvo paskelbta 6 valandos ir 52 minutes, ne 16:00 UTC
Vėjas 2 kt iš Šiaurės/Šiaurės Vakarų
Temperatūra 27°C
Drėgmė 94%
Slėgis 1011 hPa
Matomumas: 3000 m
Su prošvaistėmis ne aukštis 4000 ft
rūkana

METAR: VLVT 191600Z 34002KT 3000 BR BKN040 27/26 Q1011 NOSIG

Laikas: 05:52 (22:52 UTC)

Prognozė

Ataskaita buvo paskelbta 5 valandos ir 52 minutes, ne 17:00 UTC
Prognozė galioja nuo 19 metu 18 UTC su 20 metu 18 UTC
Vėjas 4 kt iš Pietvakarių
Matomumas: 8000 m
Išsisklaidę debesys ne aukštis 1600 ft
Išsisklaidę debesys ne aukštis 4000 ft
Su prošvaistėmis ne aukštis 8300 ft

TAF: VLVT 191700Z 1918/2018 22004KT 8000 SCT016 SCT040 BKN083

Orai ataskaitas ir orų prognozės (METAR, TAF).

turimą stotys yra geltonos ir raudonos taškus žemėlapyje.

Perkelti pele per norėdami pamatyti stoties vardą.

Tada spustelėkite, norėdami matyti oro stebėjimo ir prognozės.

Norėdami pakeisti žemėlapį: spustelėkite ant žalios mygtukų su juodo kryžiaus žemyn,; žalią mygtuką su brūkšneliu, jei norite nutolinti; arba žalių rodyklių gretimoms žemėlapius.


METAR-TAF: